Lowell, Massachusetts
Current Conditions -  °F | °C
As of 6:54 AM on Monday 20 Oct 2014 (Local Time) from KLWM Reporting Station
Clear Clear  
Wind Chill: 36°   Ceiling: Unl
Heat Index: 36°   Visibility: 10mi
Dew Point: 26°   Wind: 3mph
Humidity: 67%   Direction: 190°S
Pressure: 30.03"   Gusts: NA
Location:  42.65°N, 71.31°W
Report Text: KLWM 201054Z 19003KT 10SM CLR 02/M03 A3003 RMK AO2 SLP170 T00221033
Loading
Personal Weather Stations






























Interactive Weather Map
Tropical Storm Tracking
New forecast layout! Learn more

10-Day Weather Forecast

Advertisements
Track Severe Weather on mobile